Main page
Satellite images 15-day forecastsClimateMarine weather Cyclones Lightning AirportsFAQ Newsletter About
Weather : Europe Africa North America South America Asia Australia-Oceania Others
Languages Contact

Istanbul Sabiha Gökçen, Turkey

latitude: 40-53-55N, longitude: 029-18-33E, elevation: 95 m


METAR: LTFJ 291920Z 04010KT 9999 SCT035 20/14 Q1018 NOSIG
short-TAF: out of date (34380 hours)
long-TAF: LTFJ 291640Z 2918/3018 04014KT 9999 SCT035

Time: 23:06 (20:06 UTC)

Current weather observation

The report was made 46 minutes ago, at 19:20 UTC  
Wind 10 kt from the Northeast
Temperature 20°C
Humidity 68%
Pressure 1018 hPa
Visibility 10 km or more
Scattered clouds at a height of 3500 ft

Change units

Forecast

The report was made 3 hours and 3 minutes ago, at 17:03 UTC  
Forecast valid from 29 at 18 UTC to 30 at 18 UTC
Wind 14 kt from the Northeast
Visibility 10 km or more
Scattered clouds at a height of 3500 ft
The information on this site is subject to a disclaimer
Weather : Europe Africa North America South America Asia Australia-Oceania Others
Satellite images 15-day forecastsClimateMarine weather Cyclones Lightning AirportsFAQ Languages Contact Newsletter About